Terminal Aerodrome Forecast
Issued by NWS Duluth, MN

Current Version | Previous Version | Text Only | Print | Product List | Glossary On
Versions: 1 2 3 4 5 6 7 8 9 10 11 12 13 14 15 16 17 18 19 20
000
FTUS43 KDLH 210500
TAFINL
TAF
KINL 210520Z 2106/2206 11007KT P6SM OVC021
     FM211600 15009KT P6SM SCT025=

USA.gov is the U.S. government's official web portal to all federal, state and local government web resources and services.